createdAt,value
2023-02-01T00:00:11.082Z,66.44
2023-02-01T00:03:14.080Z,66.66
2023-02-01T00:06:15.832Z,66.67
2023-02-01T00:09:17.469Z,66.59
2023-02-01T00:12:19.064Z,66.78
2023-02-01T00:15:21.757Z,66.81
2023-02-01T00:18:23.419Z,66.90
2023-02-01T00:21:25.565Z,66.97
2023-02-01T00:24:27.342Z,67.37
2023-02-01T00:27:29.206Z,67.58
2023-02-01T00:30:30.961Z,67.89
2023-02-01T00:33:33.845Z,67.92
2023-02-01T00:36:36.018Z,67.89
2023-02-01T00:39:37.726Z,67.83
2023-02-01T00:42:39.384Z,67.63
2023-02-01T00:45:41.606Z,67.69
2023-02-01T00:48:43.757Z,67.78
2023-02-01T00:51:45.458Z,67.64
2023-02-01T00:54:47.299Z,67.77
2023-02-01T00:57:48.913Z,67.75
2023-02-01T01:01:01.991Z,67.74
2023-02-01T01:04:04.597Z,67.66
2023-02-01T01:07:06.329Z,67.99
2023-02-01T01:10:08.707Z,68.19
2023-02-01T01:13:10.430Z,68.30
2023-02-01T01:16:13.449Z,68.29
2023-02-01T01:19:15.508Z,68.48
2023-02-01T01:22:17.193Z,68.45
2023-02-01T01:25:19.051Z,68.47
2023-02-01T01:28:20.915Z,68.57
2023-02-01T01:31:22.807Z,68.43
2023-02-01T01:34:24.510Z,68.45
2023-02-01T01:37:26.184Z,68.40
2023-02-01T01:40:29.596Z,68.58
2023-02-01T01:43:56.758Z,68.58
2023-02-01T01:47:00.176Z,68.67
2023-02-01T01:50:04.593Z,68.73
2023-02-01T01:53:08.905Z,68.75
2023-02-01T01:56:11.250Z,68.79
2023-02-01T01:59:13.964Z,68.94
2023-02-01T02:02:16.734Z,68.84
2023-02-01T02:05:19.125Z,68.74
2023-02-01T02:08:21.810Z,68.96
2023-02-01T02:11:23.583Z,69.15
2023-02-01T02:14:26.151Z,69.20
2023-02-01T02:17:52.490Z,69.44
2023-02-01T02:21:12.887Z,69.45
2023-02-01T02:24:23.492Z,69.45
2023-02-01T02:27:31.159Z,69.20
2023-02-01T02:30:42.477Z,69.21
2023-02-01T02:33:57.119Z,69.14
2023-02-01T02:37:16.496Z,69.03
2023-02-01T02:40:23.117Z,69.28
2023-02-01T02:44:03.532Z,69.29
2023-02-01T02:47:28.663Z,69.67
2023-02-01T02:51:04.395Z,69.86
2023-02-01T02:54:35.655Z,69.78
2023-02-01T02:57:58.641Z,69.93
2023-02-01T03:01:19.347Z,69.77
2023-02-01T03:04:22.206Z,69.83
2023-02-01T03:07:46.742Z,69.90
2023-02-01T03:10:53.270Z,69.63
2023-02-01T03:13:58.499Z,69.73
2023-02-01T03:17:07.753Z,69.86
2023-02-01T03:20:11.921Z,70.09
2023-02-01T03:23:16.499Z,70.13
2023-02-01T03:26:20.053Z,70.29
2023-02-01T03:29:48.188Z,70.21
2023-02-01T03:33:01.384Z,70.51
2023-02-01T03:36:25.602Z,70.37
2023-02-01T03:39:40.062Z,70.32
2023-02-01T03:42:45.307Z,70.22
2023-02-01T03:45:51.391Z,70.19
2023-02-01T03:48:54.051Z,70.14
2023-02-01T03:51:58.735Z,70.35
2023-02-01T03:55:01.010Z,70.35
2023-02-01T03:58:07.912Z,70.60
2023-02-01T04:01:09.857Z,70.64
2023-02-01T04:04:20.943Z,70.86
2023-02-01T04:07:25.277Z,70.93
2023-02-01T04:10:27.757Z,71.05
2023-02-01T04:13:29.445Z,71.10
2023-02-01T04:16:34.419Z,70.89
2023-02-01T04:19:36.195Z,70.98
2023-02-01T04:22:38.167Z,70.77
2023-02-01T04:25:39.826Z,70.62
2023-02-01T04:28:41.473Z,70.70
2023-02-01T04:31:43.245Z,70.46
2023-02-01T04:34:45.056Z,70.54
2023-02-01T04:37:46.925Z,70.73
2023-02-01T04:40:49.703Z,70.70
2023-02-01T04:43:53.208Z,71.02
2023-02-01T04:46:54.852Z,71.24
2023-02-01T04:49:56.631Z,71.27
2023-02-01T04:52:58.302Z,71.48
2023-02-01T04:55:59.954Z,71.55
2023-02-01T04:59:03.485Z,71.43
2023-02-01T05:02:05.161Z,71.51
2023-02-01T05:05:07.192Z,71.43
2023-02-01T05:08:08.948Z,71.50
2023-02-01T05:11:33.444Z,71.53
2023-02-01T05:14:35.065Z,71.34
2023-02-01T05:17:36.756Z,71.29
2023-02-01T05:20:38.425Z,71.46
2023-02-01T05:23:58.573Z,71.53
2023-02-01T05:27:00.249Z,71.44
2023-02-01T05:30:03.275Z,71.57
2023-02-01T05:33:05.224Z,71.71
2023-02-01T05:36:07.091Z,71.76
2023-02-01T05:39:08.714Z,71.75
2023-02-01T05:42:10.713Z,71.86
2023-02-01T05:45:12.631Z,71.80
2023-02-01T05:48:14.452Z,71.72
2023-02-01T05:51:16.244Z,71.85
2023-02-01T05:54:17.909Z,71.78
2023-02-01T05:57:19.586Z,71.84
2023-02-01T06:00:22.470Z,72.00
2023-02-01T06:03:24.232Z,72.34
2023-02-01T06:06:25.915Z,72.32
2023-02-01T06:09:29.436Z,72.42
2023-02-01T06:12:31.406Z,72.11
2023-02-01T06:15:34.577Z,72.11
2023-02-01T06:18:36.593Z,72.14
2023-02-01T06:21:38.347Z,71.85
2023-02-01T06:24:40.700Z,71.98
2023-02-01T06:27:42.368Z,71.91
2023-02-01T06:30:47.150Z,71.96
2023-02-01T06:33:50.005Z,72.12
2023-02-01T06:36:51.870Z,71.82
2023-02-01T06:39:53.513Z,71.81
2023-02-01T06:42:55.276Z,72.10
2023-02-01T06:46:02.342Z,72.15
2023-02-01T06:49:03.915Z,72.22
2023-02-01T06:52:05.783Z,72.08
2023-02-01T06:55:08.067Z,71.94
2023-02-01T06:58:09.817Z,72.20
2023-02-01T07:01:12.391Z,71.93
2023-02-01T07:04:14.125Z,71.95
2023-02-01T07:07:16.430Z,72.13
2023-02-01T07:10:18.300Z,71.92
2023-02-01T07:13:20.262Z,71.90
2023-02-01T07:16:22.269Z,72.01
2023-02-01T07:19:24.095Z,72.01
2023-02-01T07:22:25.854Z,72.11
2023-02-01T07:25:27.513Z,72.22
2023-02-01T07:28:30.781Z,72.51
2023-02-01T07:31:32.429Z,72.44
2023-02-01T07:34:35.013Z,72.80
2023-02-01T07:37:36.825Z,72.67
2023-02-01T07:40:38.583Z,72.62
2023-02-01T07:43:40.269Z,72.40
2023-02-01T07:46:41.901Z,72.43
2023-02-01T07:49:43.553Z,72.60
2023-02-01T07:52:45.219Z,72.40
2023-02-01T07:55:47.100Z,72.85
2023-02-01T07:58:50.418Z,72.95
2023-02-01T08:01:52.157Z,72.99
2023-02-01T08:04:54.489Z,73.22
2023-02-01T08:07:56.189Z,73.17
2023-02-01T08:11:00.116Z,73.10
2023-02-01T08:14:01.845Z,73.06
2023-02-01T08:17:03.484Z,72.99
2023-02-01T08:20:05.812Z,72.86
2023-02-01T08:23:09.937Z,72.99
2023-02-01T08:26:13.602Z,73.08
2023-02-01T08:29:15.357Z,73.23
2023-02-01T08:32:17.030Z,73.35
2023-02-01T08:35:18.692Z,73.55
2023-02-01T08:38:20.376Z,73.66
2023-02-01T08:41:24.575Z,73.67
2023-02-01T08:44:26.238Z,73.68
2023-02-01T08:47:27.927Z,73.51
2023-02-01T08:50:29.634Z,73.39
2023-02-01T08:53:31.554Z,73.40
2023-02-01T08:56:33.302Z,73.30
2023-02-01T08:59:34.962Z,73.34
2023-02-01T09:02:37.008Z,73.44
2023-02-01T09:05:49.029Z,73.49
2023-02-01T09:08:51.416Z,73.66
2023-02-01T09:11:53.075Z,73.88
2023-02-01T09:14:55.376Z,73.78
2023-02-01T09:17:57.049Z,73.76
2023-02-01T09:20:58.799Z,73.65
2023-02-01T09:24:00.575Z,73.52
2023-02-01T09:27:02.265Z,73.42
2023-02-01T09:30:05.875Z,73.19
2023-02-01T09:36:26.746Z,72.94
2023-02-01T09:39:31.086Z,72.68
2023-02-01T09:42:51.669Z,72.69
2023-02-01T09:46:14.741Z,72.61
2023-02-01T09:49:21.063Z,72.50
2023-02-01T09:52:29.499Z,72.30
2023-02-01T09:55:36.589Z,72.24
2023-02-01T09:58:42.476Z,72.06
2023-02-01T10:01:44.246Z,72.02
2023-02-01T10:04:46.187Z,71.92
2023-02-01T10:07:59.303Z,71.94
2023-02-01T10:11:49.457Z,71.96
2023-02-01T10:15:15.654Z,71.82
2023-02-01T10:18:36.431Z,71.71
2023-02-01T10:22:01.925Z,71.52
2023-02-01T10:25:24.935Z,71.30
2023-02-01T10:28:27.120Z,71.10
2023-02-01T10:31:34.785Z,71.09
2023-02-01T10:34:37.707Z,70.90
2023-02-01T10:37:42.320Z,70.63
2023-02-01T10:40:44.069Z,70.35
2023-02-01T10:43:48.659Z,70.14
2023-02-01T10:46:51.316Z,69.98
2023-02-01T10:50:10.312Z,69.81
2023-02-01T10:53:18.747Z,69.57
2023-02-01T10:56:29.075Z,69.56
2023-02-01T10:59:33.586Z,69.41
2023-02-01T11:02:36.588Z,69.23
2023-02-01T11:05:46.857Z,69.12
2023-02-01T11:08:51.196Z,68.77
2023-02-01T11:11:53.008Z,68.88
2023-02-01T11:15:04.576Z,68.68
2023-02-01T11:18:17.909Z,68.38
2023-02-01T11:21:19.603Z,68.30
2023-02-01T11:24:23.921Z,68.09
2023-02-01T11:27:27.805Z,67.87
2023-02-01T11:30:38.465Z,67.61
2023-02-01T11:33:48.998Z,67.39
2023-02-01T11:36:50.714Z,67.13
2023-02-01T11:39:58.002Z,67.23
2023-02-01T11:43:38.408Z,67.18
2023-02-01T11:46:40.072Z,66.88
2023-02-01T11:49:41.782Z,66.68
2023-02-01T11:52:52.413Z,66.54
2023-02-01T11:56:29.749Z,66.19
2023-02-01T11:59:56.387Z,65.94
2023-02-01T12:03:24.783Z,65.70
2023-02-01T12:06:35.592Z,65.34
2023-02-01T12:09:53.032Z,65.01
2023-02-01T12:13:03.744Z,64.83
2023-02-01T12:16:11.334Z,64.32
2023-02-01T12:19:22.573Z,64.18
2023-02-01T12:22:50.705Z,63.97
2023-02-01T12:26:23.324Z,63.74
2023-02-01T12:29:53.004Z,63.26
2023-02-01T12:33:09.772Z,63.16
2023-02-01T12:36:14.924Z,62.79
2023-02-01T12:39:33.746Z,62.73
2023-02-01T12:42:42.438Z,62.50
2023-02-01T12:45:48.147Z,62.26
2023-02-01T12:48:55.845Z,62.18
2023-02-01T12:52:05.474Z,62.04
2023-02-01T12:55:35.529Z,61.82
2023-02-01T12:58:42.502Z,61.65
2023-02-01T13:01:51.962Z,61.34
2023-02-01T13:05:02.818Z,61.40
2023-02-01T13:08:08.899Z,61.11
2023-02-01T13:11:19.200Z,61.01
2023-02-01T13:14:33.168Z,60.75
2023-02-01T13:17:35.015Z,60.65
2023-02-01T13:20:43.463Z,60.51
2023-02-01T13:23:47.937Z,60.43
2023-02-01T13:26:49.812Z,60.38
2023-02-01T13:30:17.040Z,60.12
2023-02-01T13:33:52.608Z,59.95
2023-02-01T13:37:26.999Z,59.75
2023-02-01T13:41:07.025Z,59.53
2023-02-01T13:44:25.760Z,59.59
2023-02-01T13:47:33.288Z,59.41
2023-02-01T13:50:38.651Z,59.33
2023-02-01T13:53:46.953Z,59.27
2023-02-01T13:56:48.647Z,59.13
2023-02-01T13:59:51.917Z,59.06
2023-02-01T14:03:09.830Z,58.87
2023-02-01T14:06:27.380Z,58.79
2023-02-01T14:09:35.250Z,58.81
2023-02-01T14:12:45.965Z,58.44
2023-02-01T14:16:03.026Z,58.48
2023-02-01T14:19:10.391Z,58.54
2023-02-01T14:22:21.148Z,58.27
2023-02-01T14:25:23.219Z,58.31
2023-02-01T14:28:28.895Z,58.28
2023-02-01T14:32:00.811Z,58.15
2023-02-01T14:35:04.067Z,58.11
2023-02-01T14:38:08.052Z,58.15
2023-02-01T14:41:23.569Z,58.15
2023-02-01T14:44:31.415Z,57.99
2023-02-01T14:47:34.239Z,57.98
2023-02-01T14:50:41.579Z,58.04
2023-02-01T14:53:44.604Z,58.15
2023-02-01T14:56:47.041Z,57.93
2023-02-01T14:59:50.385Z,57.88
2023-02-01T15:02:53.983Z,57.93
2023-02-01T15:05:58.013Z,57.91
2023-02-01T15:09:10.431Z,57.96
2023-02-01T15:12:12.045Z,57.97
2023-02-01T15:15:13.725Z,58.07
2023-02-01T15:18:19.716Z,58.05
2023-02-01T15:21:29.807Z,58.08
2023-02-01T15:24:32.914Z,58.14
2023-02-01T15:27:34.716Z,58.12
2023-02-01T15:30:37.179Z,58.11
2023-02-01T15:33:38.887Z,58.19
2023-02-01T15:36:45.764Z,58.23
2023-02-01T15:40:10.393Z,58.27
2023-02-01T15:43:13.196Z,58.33
2023-02-01T15:46:18.082Z,58.34
2023-02-01T15:49:20.905Z,58.27
2023-02-01T15:52:28.903Z,58.37
2023-02-01T15:55:43.027Z,58.46
2023-02-01T15:58:51.686Z,58.43
2023-02-01T16:01:53.418Z,58.49
2023-02-01T16:04:55.592Z,58.49
2023-02-01T16:08:05.035Z,58.72
2023-02-01T16:11:10.095Z,58.88
2023-02-01T16:14:11.697Z,58.98
2023-02-01T16:17:13.349Z,59.02
2023-02-01T16:20:15.123Z,59.17
2023-02-01T16:23:16.843Z,59.16
2023-02-01T16:26:19.564Z,59.31
2023-02-01T16:29:22.739Z,59.34
2023-02-01T16:32:24.711Z,59.48
2023-02-01T16:35:28.773Z,59.84
2023-02-01T16:38:30.581Z,59.90
2023-02-01T16:41:32.304Z,59.88
2023-02-01T16:44:33.985Z,60.07
2023-02-01T16:47:38.698Z,60.22
2023-02-01T16:50:40.378Z,60.57
2023-02-01T16:53:53.846Z,60.76
2023-02-01T16:56:56.532Z,61.05
2023-02-01T16:59:59.416Z,61.15
2023-02-01T17:03:01.068Z,61.42
2023-02-01T17:06:02.970Z,61.41
2023-02-01T17:09:05.230Z,61.45
2023-02-01T17:12:07.164Z,61.44
2023-02-01T17:15:11.198Z,61.68
2023-02-01T17:18:16.447Z,61.75
2023-02-01T17:21:18.077Z,61.82
2023-02-01T17:24:25.909Z,61.91
2023-02-01T17:27:30.353Z,62.04
2023-02-01T17:30:32.396Z,62.15
2023-02-01T17:33:38.018Z,62.39
2023-02-01T17:36:42.655Z,62.52
2023-02-01T17:39:56.338Z,62.84
2023-02-01T17:42:58.121Z,63.07
2023-02-01T17:46:04.286Z,63.30
2023-02-01T17:49:06.014Z,63.40
2023-02-01T17:52:11.126Z,63.52
2023-02-01T17:55:22.755Z,63.64
2023-02-01T17:58:24.909Z,63.72
2023-02-01T18:01:27.374Z,63.80
2023-02-01T18:04:29.114Z,63.85
2023-02-01T18:07:30.815Z,63.90
2023-02-01T18:10:32.472Z,63.95
2023-02-01T18:13:34.147Z,64.16
2023-02-01T18:16:37.247Z,64.39
2023-02-01T18:19:39.424Z,64.64
2023-02-01T18:22:41.029Z,64.82
2023-02-01T18:25:42.703Z,64.80
2023-02-01T18:28:45.018Z,64.97
2023-02-01T18:31:49.604Z,65.04
2023-02-01T18:34:51.391Z,64.94
2023-02-01T18:37:54.726Z,65.05
2023-02-01T18:40:58.316Z,64.99
2023-02-01T18:43:59.972Z,64.90
2023-02-01T18:47:01.656Z,65.05
2023-02-01T18:50:03.507Z,65.10
2023-02-01T18:53:08.483Z,65.32
2023-02-01T18:56:13.198Z,65.62
2023-02-01T18:59:17.399Z,65.92
2023-02-01T19:02:19.575Z,66.13
2023-02-01T19:05:22.324Z,66.35
2023-02-01T19:08:25.906Z,66.51
2023-02-01T19:11:27.672Z,66.44
2023-02-01T19:14:29.479Z,66.36
2023-02-01T19:17:31.271Z,66.40
2023-02-01T19:20:33.574Z,66.40
2023-02-01T19:23:35.390Z,66.39
2023-02-01T19:26:37.143Z,66.41
2023-02-01T19:29:40.899Z,66.43
2023-02-01T19:32:42.687Z,66.55
2023-02-01T19:35:44.339Z,66.86
2023-02-01T19:38:46.648Z,67.00
2023-02-01T19:41:48.401Z,67.13
2023-02-01T19:44:50.150Z,67.37
2023-02-01T19:47:51.804Z,67.27
2023-02-01T19:50:55.569Z,67.32
2023-02-01T19:53:57.624Z,67.44
2023-02-01T19:56:59.388Z,67.61
2023-02-01T20:00:01.077Z,67.65
2023-02-01T20:03:05.022Z,67.70
2023-02-01T20:06:07.617Z,67.92
2023-02-01T20:09:09.345Z,67.83
2023-02-01T20:12:11.922Z,67.78
2023-02-01T20:15:13.626Z,67.84
2023-02-01T20:18:15.316Z,67.86
2023-02-01T20:21:18.492Z,68.06
2023-02-01T20:24:20.304Z,68.06
2023-02-01T20:27:23.039Z,68.38
2023-02-01T20:30:24.929Z,68.60
2023-02-01T20:33:27.651Z,68.91
2023-02-01T20:36:30.641Z,69.13
2023-02-01T20:39:32.305Z,69.03
2023-02-01T20:42:34.669Z,68.93
2023-02-01T20:45:40.592Z,68.87
2023-02-01T20:48:44.050Z,68.96
2023-02-01T20:51:45.749Z,68.81
2023-02-01T20:54:47.670Z,68.96
2023-02-01T20:57:49.406Z,68.80
2023-02-01T21:00:51.305Z,68.95
2023-02-01T21:03:53.002Z,68.94
2023-02-01T21:06:55.885Z,69.19
2023-02-01T21:09:57.630Z,69.31
2023-02-01T21:13:05.022Z,69.42
2023-02-01T21:16:08.688Z,69.42
2023-02-01T21:19:10.312Z,69.50
2023-02-01T21:22:13.503Z,69.45
2023-02-01T21:25:15.654Z,69.33
2023-02-01T21:28:17.471Z,69.33
2023-02-01T21:31:22.294Z,69.41
2023-02-01T21:34:24.612Z,69.40
2023-02-01T21:37:27.093Z,69.32
2023-02-01T21:40:28.772Z,69.62
2023-02-01T21:43:30.498Z,69.78
2023-02-01T21:46:32.727Z,70.06
2023-02-01T21:49:35.001Z,70.20
2023-02-01T21:52:39.093Z,70.07
2023-02-01T21:55:41.323Z,70.15
2023-02-01T21:58:43.168Z,70.12
2023-02-01T22:01:45.259Z,70.24
2023-02-01T22:04:49.133Z,70.32
2023-02-01T22:07:50.882Z,70.24
2023-02-01T22:10:53.116Z,70.30
2023-02-01T22:13:55.275Z,70.57
2023-02-01T22:16:57.177Z,70.59
2023-02-01T22:19:58.915Z,70.86
2023-02-01T22:23:00.607Z,70.82
2023-02-01T22:26:06.729Z,70.88
2023-02-01T22:29:09.514Z,70.79
2023-02-01T22:32:13.280Z,70.71
2023-02-01T22:35:15.036Z,70.78
2023-02-01T22:38:17.288Z,70.65
2023-02-01T22:41:19.949Z,70.51
2023-02-01T22:44:21.724Z,70.47
2023-02-01T22:47:23.446Z,70.58
2023-02-01T22:50:25.074Z,70.81
2023-02-01T22:53:27.744Z,70.84
2023-02-01T22:56:36.775Z,71.19
2023-02-01T22:59:38.471Z,71.42
2023-02-01T23:02:43.625Z,71.45
2023-02-01T23:05:45.302Z,71.56
2023-02-01T23:08:46.979Z,71.58
2023-02-01T23:11:49.129Z,71.42
2023-02-01T23:15:06.349Z,71.46
2023-02-01T23:18:07.990Z,71.68
2023-02-01T23:21:12.689Z,71.40
2023-02-01T23:24:14.378Z,71.21
2023-02-01T23:27:16.060Z,71.70
2023-02-01T23:30:17.813Z,71.85
2023-02-01T23:33:23.056Z,71.75
2023-02-01T23:36:26.053Z,71.74
2023-02-01T23:39:27.836Z,71.53
2023-02-01T23:42:29.447Z,71.60
2023-02-01T23:45:31.089Z,71.57
2023-02-01T23:48:32.848Z,71.50
2023-02-01T23:51:34.708Z,71.53
2023-02-01T23:54:36.342Z,71.54
2023-02-01T23:57:38.152Z,71.69
